createdAt,value
2022-08-26T00:01:07.491Z,95902.59
2022-08-26T00:04:10.278Z,95890.59
2022-08-26T00:07:12.133Z,95892.63
2022-08-26T00:10:17.297Z,95897.47
2022-08-26T00:13:22.015Z,95892.47
2022-08-26T00:16:28.336Z,95900.00
2022-08-26T00:19:30.136Z,95895.06
2022-08-26T00:22:31.766Z,95899.25
2022-08-26T00:25:33.512Z,95901.63
2022-08-26T00:28:35.488Z,95897.47
2022-08-26T00:31:37.890Z,95894.41
2022-08-26T00:34:40.651Z,95900.88
2022-08-26T00:37:43.234Z,95902.59
2022-08-26T00:40:50.368Z,95906.38
2022-08-26T00:43:52.646Z,95904.94
2022-08-26T00:47:00.083Z,95902.69
2022-08-26T00:50:07.376Z,95902.50
2022-08-26T00:53:23.982Z,95902.50
2022-08-26T00:56:41.106Z,95906.75
2022-08-26T00:59:46.484Z,95895.72
2022-08-26T01:02:50.569Z,95897.44
2022-08-26T01:05:56.152Z,95897.06
2022-08-26T01:08:58.325Z,95896.44
2022-08-26T01:12:02.962Z,95892.28
2022-08-26T01:15:05.977Z,95891.94
2022-08-26T01:18:08.711Z,95895.31
2022-08-26T01:21:21.662Z,95889.50
2022-08-26T01:24:27.606Z,95882.88
2022-08-26T01:27:32.603Z,95892.28
2022-08-26T01:30:40.439Z,95892.97
2022-08-26T01:34:02.017Z,95882.78
2022-08-26T01:37:03.722Z,95891.13
2022-08-26T01:40:12.403Z,95878.88
2022-08-26T01:43:19.616Z,95885.75
2022-08-26T01:46:24.636Z,95879.34
2022-08-26T01:49:55.709Z,95885.59
2022-08-26T01:53:00.908Z,95892.53
2022-08-26T01:56:03.988Z,95884.00
2022-08-26T01:59:10.728Z,95886.34
2022-08-26T02:02:13.947Z,95881.56
2022-08-26T02:05:19.339Z,95884.13
2022-08-26T02:08:26.075Z,95889.75
2022-08-26T02:11:28.383Z,95890.19
2022-08-26T02:14:35.049Z,95876.47
2022-08-26T02:17:47.257Z,95882.09
2022-08-26T02:20:54.233Z,95882.34
2022-08-26T02:23:56.467Z,95879.19
2022-08-26T02:27:01.473Z,95880.50
2022-08-26T02:30:11.210Z,95880.69
2022-08-26T02:33:13.318Z,95871.97
2022-08-26T02:36:20.876Z,95877.59
2022-08-26T02:39:22.769Z,95871.34
2022-08-26T02:42:24.496Z,95869.31
2022-08-26T02:45:28.022Z,95877.03
2022-08-26T02:48:30.311Z,95876.81
2022-08-26T02:51:31.992Z,95884.31
2022-08-26T02:54:34.958Z,95877.47
2022-08-26T02:57:37.642Z,95874.78
2022-08-26T03:00:52.531Z,95876.44
2022-08-26T03:03:55.098Z,95870.41
2022-08-26T03:06:57.054Z,95871.22
2022-08-26T03:09:59.075Z,95885.59
2022-08-26T03:13:05.146Z,95888.50
2022-08-26T03:16:07.638Z,95892.47
2022-08-26T03:19:09.656Z,95886.22
2022-08-26T03:22:12.023Z,95875.03
2022-08-26T03:25:17.011Z,95878.56
2022-08-26T03:28:19.356Z,95881.28
2022-08-26T03:31:21.516Z,95882.09
2022-08-26T03:34:26.284Z,95876.28
2022-08-26T03:37:28.020Z,95876.06
2022-08-26T03:40:29.811Z,95876.53
2022-08-26T03:43:31.472Z,95878.97
2022-08-26T03:46:33.635Z,95873.81
2022-08-26T03:49:35.927Z,95874.41
2022-08-26T03:52:43.025Z,95869.44
2022-08-26T03:55:47.651Z,95873.81
2022-08-26T03:58:54.211Z,95874.84
2022-08-26T04:01:55.864Z,95869.03
2022-08-26T04:04:57.684Z,95869.66
2022-08-26T04:07:59.551Z,95868.81
2022-08-26T04:11:01.611Z,95866.94
2022-08-26T04:14:07.286Z,95868.22
2022-08-26T04:17:08.936Z,95875.91
2022-08-26T04:20:13.928Z,95875.06
2022-08-26T04:23:17.872Z,95880.69
2022-08-26T04:26:21.188Z,95873.63
2022-08-26T04:29:26.528Z,95869.88
2022-08-26T04:32:28.583Z,95870.91
2022-08-26T04:35:31.428Z,95866.34
2022-08-26T04:38:34.487Z,95857.38
2022-08-26T04:41:36.926Z,95869.88
2022-08-26T04:44:38.565Z,95850.75
2022-08-26T04:47:41.184Z,95859.88
2022-08-26T04:51:29.767Z,95864.03
2022-08-26T04:54:31.515Z,95864.25
2022-08-26T04:57:33.678Z,95876.53
2022-08-26T05:00:36.055Z,95878.16
2022-08-26T05:08:14.974Z,95879.41
2022-08-26T05:11:17.202Z,95874.81
2022-08-26T05:14:22.233Z,95880.81
2022-08-26T05:17:27.299Z,95874.78
2022-08-26T05:20:28.965Z,95880.81
2022-08-26T05:23:34.066Z,95877.63
2022-08-26T05:26:36.176Z,95877.44
2022-08-26T05:29:37.870Z,95883.47
2022-08-26T05:32:39.566Z,95884.28
2022-08-26T05:35:43.075Z,95888.41
2022-08-26T05:38:44.918Z,95891.94
2022-08-26T05:41:46.826Z,95895.28
2022-08-26T05:44:55.412Z,95893.19
2022-08-26T05:47:57.975Z,95905.00
2022-08-26T05:51:04.972Z,95898.91
2022-08-26T05:54:10.326Z,95912.63
2022-08-26T05:57:13.877Z,95902.19
2022-08-26T06:00:16.272Z,95904.47
2022-08-26T06:03:18.847Z,95894.00
2022-08-26T06:06:27.584Z,95893.56
2022-08-26T06:09:30.823Z,95899.97
2022-08-26T06:12:33.762Z,95900.59
2022-08-26T06:15:39.728Z,95898.47
2022-08-26T06:18:46.415Z,95900.53
2022-08-26T06:21:51.313Z,95897.34
2022-08-26T06:25:15.407Z,95899.63
2022-08-26T06:28:17.540Z,95912.28
2022-08-26T06:31:19.879Z,95902.91
2022-08-26T06:34:22.532Z,95912.22
2022-08-26T06:37:28.314Z,95911.13
2022-08-26T06:40:31.328Z,95905.84
2022-08-26T06:43:33.160Z,95908.25
2022-08-26T06:46:35.378Z,95910.91
2022-08-26T06:49:37.341Z,95913.34
2022-08-26T06:52:42.445Z,95914.13
2022-08-26T06:55:46.211Z,95915.91
2022-08-26T06:58:48.703Z,95917.75
2022-08-26T07:01:50.402Z,95913.06
2022-08-26T07:04:52.061Z,95915.84
2022-08-26T07:07:58.451Z,95921.94
2022-08-26T07:11:05.619Z,95923.28
2022-08-26T07:14:07.717Z,95923.31
2022-08-26T07:17:13.759Z,95924.72
2022-08-26T07:20:16.061Z,95916.03
2022-08-26T07:23:18.758Z,95923.59
2022-08-26T07:26:24.893Z,95922.44
2022-08-26T07:29:26.663Z,95912.66
2022-08-26T07:32:28.536Z,95921.31
2022-08-26T07:35:30.206Z,95921.34
2022-08-26T07:38:33.842Z,95922.88
2022-08-26T07:41:36.652Z,95915.91
2022-08-26T07:44:39.712Z,95913.06
2022-08-26T07:47:42.450Z,95924.22
2022-08-26T07:50:50.505Z,95927.44
2022-08-26T07:53:53.389Z,95923.16
2022-08-26T07:56:55.893Z,95924.72
2022-08-26T07:59:58.064Z,95925.91
2022-08-26T08:03:01.363Z,95915.38
2022-08-26T08:06:03.101Z,95913.84
2022-08-26T08:09:05.115Z,95919.63
2022-08-26T08:12:09.524Z,95918.44
2022-08-26T08:15:17.108Z,95922.09
2022-08-26T08:18:20.351Z,95914.53
2022-08-26T08:21:26.536Z,95913.31
2022-08-26T08:24:28.584Z,95914.25
2022-08-26T08:27:33.622Z,95906.53
2022-08-26T08:30:39.154Z,95910.81
2022-08-26T08:33:40.814Z,95905.94
2022-08-26T08:36:42.847Z,95906.00
2022-08-26T08:39:45.459Z,95904.50
2022-08-26T08:42:59.221Z,95901.84
2022-08-26T08:46:07.750Z,95896.81
2022-08-26T08:49:11.080Z,95901.16
2022-08-26T08:52:31.132Z,95905.22
2022-08-26T08:55:41.996Z,95909.28
2022-08-26T08:58:46.561Z,95902.09
2022-08-26T09:01:59.868Z,95903.31
2022-08-26T09:05:20.057Z,95902.59
2022-08-26T09:08:27.469Z,95900.50
2022-08-26T09:11:30.402Z,95897.59
2022-08-26T09:14:32.018Z,95895.81
2022-08-26T09:17:51.899Z,95893.97
2022-08-26T09:20:59.356Z,95891.06
2022-08-26T09:24:01.126Z,95899.34
2022-08-26T09:27:02.734Z,95899.63
2022-08-26T09:30:11.481Z,95895.34
2022-08-26T09:33:18.811Z,95897.31
2022-08-26T09:36:35.389Z,95894.34
2022-08-26T09:39:40.831Z,95894.91
2022-08-26T09:42:42.933Z,95887.28
2022-08-26T09:45:50.630Z,95884.63
2022-08-26T09:48:53.272Z,95890.72
2022-08-26T09:52:21.381Z,95884.00
2022-08-26T09:55:23.732Z,95873.38
2022-08-26T10:01:41.861Z,95861.69
2022-08-26T10:04:52.101Z,95856.91
2022-08-26T10:07:53.914Z,95842.50
2022-08-26T10:10:58.949Z,95843.44
2022-08-26T10:14:17.257Z,95839.16
2022-08-26T10:17:46.981Z,95835.19
2022-08-26T10:20:56.461Z,95831.50
2022-08-26T10:24:02.026Z,95833.78
2022-08-26T10:27:31.593Z,95825.13
2022-08-26T10:30:42.954Z,95818.81
2022-08-26T10:33:44.799Z,95817.22
2022-08-26T10:37:15.919Z,95814.00
2022-08-26T10:40:24.110Z,95814.38
2022-08-26T10:43:30.388Z,95816.59
2022-08-26T10:46:44.298Z,95819.34
2022-08-26T10:49:49.472Z,95816.06
2022-08-26T10:53:33.108Z,95808.66
2022-08-26T10:56:49.888Z,95808.91
2022-08-26T11:00:29.493Z,95813.56
2022-08-26T11:03:50.675Z,95813.28
2022-08-26T11:07:31.602Z,95802.84
2022-08-26T11:10:44.856Z,95804.97
2022-08-26T11:14:01.907Z,95798.09
2022-08-26T11:17:11.836Z,95803.88
2022-08-26T11:20:22.673Z,95798.66
2022-08-26T11:23:28.201Z,95792.03
2022-08-26T11:26:55.549Z,95797.25
2022-08-26T11:30:00.600Z,95799.41
2022-08-26T11:33:02.773Z,95796.41
2022-08-26T11:36:11.532Z,95797.81
2022-08-26T11:39:25.464Z,95798.66
2022-08-26T11:42:41.690Z,95778.66
2022-08-26T11:45:47.514Z,95779.78
2022-08-26T11:48:49.349Z,95777.59
2022-08-26T11:51:51.381Z,95770.22
2022-08-26T11:55:14.331Z,95770.53
2022-08-26T11:58:16.527Z,95760.44
2022-08-26T12:01:39.934Z,95763.75
2022-08-26T12:04:46.390Z,95761.03
2022-08-26T12:07:50.942Z,95753.94
2022-08-26T12:11:11.439Z,95750.94
2022-08-26T12:14:22.400Z,95750.69
2022-08-26T12:17:27.898Z,95736.72
2022-08-26T12:20:48.837Z,95738.13
2022-08-26T12:23:54.592Z,95730.47
2022-08-26T12:27:30.914Z,95730.47
2022-08-26T12:30:32.973Z,95733.78
2022-08-26T12:33:36.369Z,95724.47
2022-08-26T12:36:46.481Z,95725.56
2022-08-26T12:39:49.164Z,95719.00
2022-08-26T12:42:51.270Z,95720.66
2022-08-26T12:45:58.401Z,95718.47
2022-08-26T12:49:03.901Z,95720.66
2022-08-26T12:52:07.616Z,95715.16
2022-08-26T12:55:28.616Z,95715.16
2022-08-26T12:58:33.084Z,95706.66
2022-08-26T13:01:42.906Z,95706.63
2022-08-26T13:04:46.149Z,95701.97
2022-08-26T13:08:24.437Z,95703.34
2022-08-26T13:11:26.070Z,95701.44
2022-08-26T13:14:27.769Z,95695.09
2022-08-26T13:17:30.661Z,95702.78
2022-08-26T13:20:32.612Z,95691.47
2022-08-26T13:23:34.423Z,95684.03
2022-08-26T13:26:36.189Z,95675.78
2022-08-26T13:29:38.260Z,95673.25
2022-08-26T13:32:40.555Z,95676.69
2022-08-26T13:35:44.510Z,95667.22
2022-08-26T13:38:48.423Z,95665.16
2022-08-26T13:41:54.380Z,95663.38
2022-08-26T13:44:58.159Z,95661.34
2022-08-26T13:48:00.487Z,95655.84
2022-08-26T13:51:02.917Z,95666.41
2022-08-26T13:54:09.926Z,95670.31
2022-08-26T13:57:11.543Z,95664.22
2022-08-26T14:00:15.145Z,95661.41
2022-08-26T14:03:17.179Z,95657.97
2022-08-26T14:06:19.300Z,95663.31
2022-08-26T14:09:20.928Z,95668.00
2022-08-26T14:12:22.813Z,95669.88
2022-08-26T14:15:25.195Z,95677.19
2022-08-26T14:18:33.348Z,95675.78
2022-08-26T14:21:37.891Z,95666.63
2022-08-26T14:24:39.537Z,95674.78
2022-08-26T14:27:44.793Z,95677.06
2022-08-26T14:30:53.210Z,95671.16
2022-08-26T14:33:58.440Z,95672.25
2022-08-26T14:37:07.659Z,95666.59
2022-08-26T14:40:10.647Z,95660.78
2022-08-26T14:43:15.203Z,95654.00
2022-08-26T14:46:18.405Z,95651.50
2022-08-26T14:49:21.816Z,95652.28
2022-08-26T14:52:23.555Z,95627.91
2022-08-26T14:55:26.334Z,95642.69
2022-08-26T14:58:32.939Z,95639.00
2022-08-26T15:01:37.112Z,95638.34
2022-08-26T15:04:39.228Z,95634.75
2022-08-26T15:07:41.118Z,95631.59
2022-08-26T15:10:42.802Z,95621.97
2022-08-26T15:13:45.799Z,95617.50
2022-08-26T15:16:53.979Z,95625.31
2022-08-26T15:19:55.643Z,95627.41
2022-08-26T15:22:58.221Z,95620.09
2022-08-26T15:26:04.373Z,95604.84
2022-08-26T15:29:06.752Z,95605.88
2022-08-26T15:32:08.653Z,95603.06
2022-08-26T15:35:10.407Z,95599.50
2022-08-26T15:38:12.918Z,95595.63
2022-08-26T15:41:14.820Z,95603.00
2022-08-26T15:44:18.453Z,95603.69
2022-08-26T15:47:20.234Z,95602.06
2022-08-26T15:50:22.202Z,95603.38
2022-08-26T15:53:29.546Z,95602.13
2022-08-26T15:56:34.445Z,95597.25
2022-08-26T15:59:36.586Z,95593.06
2022-08-26T16:02:38.478Z,95588.81
2022-08-26T16:05:43.610Z,95580.53
2022-08-26T16:08:45.964Z,95588.00
2022-08-26T16:11:47.695Z,95592.69
2022-08-26T16:14:52.689Z,95587.72
2022-08-26T16:17:54.515Z,95590.56
2022-08-26T16:21:13.381Z,95587.44
2022-08-26T16:24:15.994Z,95606.78
2022-08-26T16:27:17.698Z,95609.56
2022-08-26T16:30:20.715Z,95608.38
2022-08-26T16:33:29.170Z,95612.25
2022-08-26T16:36:31.654Z,95613.66
2022-08-26T16:39:33.361Z,95618.69
2022-08-26T16:42:41.959Z,95610.78
2022-08-26T16:45:43.595Z,95606.94
2022-08-26T16:48:45.690Z,95606.66
2022-08-26T16:51:47.528Z,95600.41
2022-08-26T16:54:49.406Z,95604.47
2022-08-26T16:57:51.503Z,95604.34
2022-08-26T17:00:53.160Z,95603.38
2022-08-26T17:03:54.924Z,95613.34
2022-08-26T17:06:56.729Z,95620.38
2022-08-26T17:09:58.928Z,95626.38
2022-08-26T17:13:00.804Z,95636.47
2022-08-26T17:16:04.233Z,95643.88
2022-08-26T17:19:09.350Z,95646.28
2022-08-26T17:22:12.153Z,95651.06
2022-08-26T17:25:18.277Z,95643.53
2022-08-26T17:28:19.914Z,95650.47
2022-08-26T17:31:23.422Z,95651.31
2022-08-26T17:34:26.424Z,95669.34
2022-08-26T17:37:28.349Z,95726.88
2022-08-26T17:40:31.686Z,95721.16
2022-08-26T17:43:34.199Z,95738.34
2022-08-26T17:46:38.424Z,95747.38
2022-08-26T17:49:40.924Z,95763.38
2022-08-26T17:52:44.018Z,95788.66
2022-08-26T17:55:46.566Z,95773.19
2022-08-26T17:58:51.250Z,95778.75
2022-08-26T18:01:55.598Z,95779.56
2022-08-26T18:04:58.056Z,95784.22
2022-08-26T18:12:41.010Z,95766.78
2022-08-26T18:15:45.432Z,95759.03
2022-08-26T18:18:48.623Z,95743.41
2022-08-26T18:21:50.402Z,95741.88
2022-08-26T18:24:59.075Z,95738.81
2022-08-26T18:28:01.189Z,95733.03
2022-08-26T18:31:05.507Z,95725.09
2022-08-26T18:34:07.614Z,95734.56
2022-08-26T18:40:17.660Z,95724.41
2022-08-26T18:43:19.493Z,95712.97
2022-08-26T18:46:23.070Z,95710.72
2022-08-26T18:49:24.832Z,95704.13
2022-08-26T18:52:27.483Z,95698.56
2022-08-26T18:55:29.065Z,95699.88
2022-08-26T18:58:30.612Z,95714.72
2022-08-26T19:01:34.266Z,95707.88
2022-08-26T19:04:38.596Z,95721.72
2022-08-26T19:07:40.373Z,95722.16
2022-08-26T19:10:43.185Z,95724.25
2022-08-26T19:13:45.346Z,95719.88
2022-08-26T19:16:50.065Z,95720.13
2022-08-26T19:19:53.533Z,95714.09
2022-08-26T19:22:57.403Z,95709.13
2022-08-26T19:26:04.800Z,95719.66
2022-08-26T19:29:06.743Z,95724.47
2022-08-26T19:32:08.797Z,95730.59
2022-08-26T19:35:10.604Z,95728.13
2022-08-26T19:38:12.354Z,95739.19
2022-08-26T19:41:16.536Z,95743.22
2022-08-26T19:44:39.316Z,95746.50
2022-08-26T19:47:41.012Z,95766.56
2022-08-26T19:50:46.072Z,95766.81
2022-08-26T19:53:48.819Z,95780.63
2022-08-26T19:56:51.064Z,95793.56
2022-08-26T19:59:52.703Z,95791.78
2022-08-26T20:02:55.507Z,95795.78
2022-08-26T20:05:57.207Z,95805.81
2022-08-26T20:08:58.879Z,95810.41
2022-08-26T20:12:01.169Z,95806.63
2022-08-26T20:15:05.127Z,95808.38
2022-08-26T20:18:27.803Z,95813.69
2022-08-26T20:21:35.545Z,95847.91
2022-08-26T20:24:37.189Z,95850.91
2022-08-26T20:27:38.871Z,95837.44
2022-08-26T20:30:40.533Z,95838.28
2022-08-26T20:33:46.435Z,95834.94
2022-08-26T20:36:50.120Z,95828.69
2022-08-26T20:39:51.813Z,95839.41
2022-08-26T20:42:53.509Z,95835.03
2022-08-26T20:45:55.419Z,95830.66
2022-08-26T20:48:58.193Z,95834.91
2022-08-26T20:52:00.358Z,95834.06
2022-08-26T20:55:02.466Z,95826.03
2022-08-26T20:58:04.242Z,95827.66
2022-08-26T21:01:08.174Z,95812.91
2022-08-26T21:04:14.035Z,95837.53
2022-08-26T21:07:15.693Z,95831.72
2022-08-26T21:10:19.590Z,95837.34
2022-08-26T21:13:21.821Z,95829.88
2022-08-26T21:16:23.548Z,95840.50
2022-08-26T21:19:25.438Z,95849.69
2022-08-26T21:22:28.232Z,95843.50
2022-08-26T21:25:29.983Z,95840.88
2022-08-26T21:28:31.745Z,95846.69
2022-08-26T21:31:33.678Z,95857.66
2022-08-26T21:34:35.442Z,95855.19
2022-08-26T21:37:37.207Z,95856.91
2022-08-26T21:40:38.814Z,95863.16
2022-08-26T21:43:41.626Z,95856.91
2022-08-26T21:46:45.510Z,95847.66
2022-08-26T21:49:47.762Z,95847.41
2022-08-26T21:52:49.495Z,95857.66
2022-08-26T21:55:51.178Z,95860.59
2022-08-26T21:58:55.020Z,95848.53
2022-08-26T22:01:57.568Z,95863.31
2022-08-26T22:04:59.217Z,95860.81
2022-08-26T22:08:00.870Z,95853.38
2022-08-26T22:11:02.840Z,95852.53
2022-08-26T22:14:05.004Z,95847.78
2022-08-26T22:17:06.740Z,95859.69
2022-08-26T22:20:16.572Z,95863.19
2022-08-26T22:23:20.215Z,95864.69
2022-08-26T22:26:25.451Z,95861.38
2022-08-26T22:29:27.644Z,95859.13
2022-08-26T22:32:29.417Z,95853.72
2022-08-26T22:35:31.392Z,95864.78
2022-08-26T22:38:33.195Z,95857.91
2022-08-26T22:41:35.355Z,95865.44
2022-08-26T22:44:37.567Z,95859.00
2022-08-26T22:47:40.252Z,95862.56
2022-08-26T22:50:43.842Z,95860.88
2022-08-26T22:53:45.796Z,95858.66
2022-08-26T22:56:47.622Z,95864.06
2022-08-26T22:59:49.282Z,95872.19
2022-08-26T23:02:50.997Z,95878.44
2022-08-26T23:05:52.799Z,95874.06
2022-08-26T23:08:57.200Z,95873.84
2022-08-26T23:11:58.910Z,95866.75
2022-08-26T23:15:01.373Z,95868.44
2022-08-26T23:18:03.803Z,95870.31
2022-08-26T23:21:06.060Z,95866.75
2022-08-26T23:24:11.036Z,95875.09
2022-08-26T23:27:12.754Z,95867.19
2022-08-26T23:30:18.799Z,95866.38
2022-08-26T23:33:22.606Z,95863.06
2022-08-26T23:36:24.576Z,95860.38
2022-08-26T23:39:26.909Z,95863.28
2022-08-26T23:42:29.042Z,95869.75
2022-08-26T23:45:35.834Z,95869.13
2022-08-26T23:48:37.740Z,95879.38
2022-08-26T23:51:57.825Z,95885.59
2022-08-26T23:54:59.445Z,95893.94
2022-08-26T23:58:01.117Z,95896.66
